Rainier, Washington
Current Conditions -  °F | °C
As of 5:54 AM on Monday 20 Oct 2014 (Local Time) from KOLM Reporting Station
Overcast Overcast  
Wind Chill: 57°   Ceiling: 4500
Heat Index: 57°   Visibility: 10mi
Dew Point: 55°   Wind: 7mph
Humidity: 93%   Direction: 210°SSW
Pressure: 29.71"   Gusts: NA
Location:  46.89°N, 122.69°W
Report Text: KOLM 201254Z AUTO 21006KT 10SM FEW014 BKN045 OVC100 14/13 A2971 RMK AO2 RAB15E53 SLP059 P0005 T01390128
Loading
Personal Weather Stations






























Interactive Weather Map
Tropical Storm Tracking
New forecast layout! Learn more

10-Day Weather Forecast

Advertisements
Track Severe Weather on mobile